Airfield :







YOU CAN JOIN US ON...

 
LOGIN :

Register | Disclaimer

   EN    FR    IT 

 









Legend :    VFR   Marginal VFR   IFR   Intensive IFR   Very Intensive IFR
Visi :
Ceiling :
>= 8 km
>= 3000ft
5 to 8 km
1000 to 3000 ft
1500m to 5 km
500 to 1000 ft
800 to 1500m
200 to 500 ft
< 800m
< 200 ft
Symbols :   Thunderstorms  Fog  Heavy snow  Heavy precipitations  Wind > 20 kt







- Airport Elevation : 357 ft
- IATA code : YSJ


CYSJ - Saint John

CURRENT METAR :
  • 220500Z 12003KT 15SM SCT090 BKN210 M01/M03 A3002 RMK AC3CI3 SLP172

EXPIRED METARs :
  • 220400Z 15005KT 15SM SCT090 BKN210 M00/M02 A3006 RMK AC3CI3 SLP184
  • 220300Z 18004KT 15SM SCT090 BKN210 M01/M02 A3007 RMK AC3CI2 SLP190

TAF TAF CYSJ
Valid from the 22 at 06:00 until the 22 at 18:00 UTC


220538Z 2206/2218 12005KT P6SM SCT090 BKN210
FM221000 09012KT P6SM OVC025
TEMPO 2210/2213 SCT003 OVC020
PROB30 2210/2213 2SM -FZRA BR OVC003
FM221300 08015KT 2SM RA BR OVC003
PROB30 2213/2218 1/2SM RA FG VV002 RMK NXT FCST BY 221200Z
CZQM FIR / North America



MET'MAP, your aeronautical weather chart ! - Copyright ORBIFLY December 2007 - Disclaimer

ORBIFLY MET'MAP TEAM :

Programming & Development : Alexandra Zaïnal
Concept & Development : Baudouin d'Aumeries
Co-Development & Prog : Marc-Olivier Méhu
Technical & hardware support : Manuel Goepfert

Contact : metmap@orbifly.com




SOURCES & CREDITS :

   NOAA